createdAt,value
2023-06-09T00:00:12.760Z,65.36
2023-06-09T00:02:40.208Z,65.84
2023-06-09T00:05:07.275Z,65.59
2023-06-09T00:07:37.091Z,64.88
2023-06-09T00:10:07.288Z,65.75
2023-06-09T00:12:33.717Z,65.65
2023-06-09T00:15:00.308Z,66.00
2023-06-09T00:17:27.061Z,66.33
2023-06-09T00:19:55.415Z,66.52
2023-06-09T00:22:21.793Z,66.21
2023-06-09T00:24:48.237Z,66.38
2023-06-09T00:27:16.811Z,66.86
2023-06-09T00:29:43.302Z,66.49
2023-06-09T00:32:09.891Z,66.58
2023-06-09T00:34:36.560Z,66.45
2023-06-09T00:37:03.003Z,66.91
2023-06-09T00:39:29.421Z,67.28
2023-06-09T00:41:55.786Z,67.63
2023-06-09T00:44:22.346Z,67.47
2023-06-09T00:46:49.472Z,67.53
2023-06-09T00:49:16.131Z,67.50
2023-06-09T00:51:43.308Z,67.44
2023-06-09T00:54:09.849Z,66.71
2023-06-09T00:56:40.042Z,67.87
2023-06-09T00:59:09.357Z,67.85
2023-06-09T01:01:38.226Z,68.00
2023-06-09T01:04:04.924Z,68.28
2023-06-09T01:07:17.485Z,67.72
2023-06-09T01:09:58.218Z,68.09
2023-06-09T01:12:55.215Z,68.29
2023-06-09T01:15:26.675Z,68.68
2023-06-09T01:17:57.815Z,68.61
2023-06-09T01:20:47.175Z,68.39
2023-06-09T01:23:40.249Z,68.58
2023-06-09T01:26:08.224Z,69.13
2023-06-09T01:28:36.305Z,69.25
2023-06-09T01:31:03.627Z,68.92
2023-06-09T01:33:30.113Z,68.88
2023-06-09T01:35:58.342Z,69.29
2023-06-09T01:38:26.055Z,69.17
2023-06-09T01:40:52.556Z,69.49
2023-06-09T01:43:19.451Z,69.64
2023-06-09T01:45:46.043Z,69.12
2023-06-09T01:48:26.721Z,69.50
2023-06-09T01:51:11.798Z,69.15
2023-06-09T01:53:42.258Z,69.22
2023-06-09T01:56:17.547Z,69.33
2023-06-09T01:58:51.644Z,69.58
2023-06-09T02:01:18.710Z,68.99
2023-06-09T02:03:47.494Z,69.52
2023-06-09T02:06:16.696Z,69.00
2023-06-09T02:08:44.319Z,68.58
2023-06-09T02:11:11.588Z,69.09
2023-06-09T02:13:38.854Z,68.22
2023-06-09T02:16:05.804Z,68.40
2023-06-09T02:18:33.190Z,68.73
2023-06-09T02:20:59.851Z,69.24
2023-06-09T02:23:26.294Z,68.78
2023-06-09T02:25:52.740Z,69.00
2023-06-09T02:28:19.262Z,69.00
2023-06-09T02:30:46.722Z,68.86
2023-06-09T02:33:15.678Z,68.75
2023-06-09T02:35:42.653Z,68.56
2023-06-09T02:38:09.244Z,68.61
2023-06-09T02:40:35.991Z,68.38
2023-06-09T02:43:02.580Z,68.02
2023-06-09T02:45:29.169Z,68.84
2023-06-09T02:47:56.051Z,68.98
2023-06-09T02:50:24.236Z,68.66
2023-06-09T02:52:51.092Z,69.02
2023-06-09T02:55:19.595Z,69.09
2023-06-09T02:57:47.089Z,69.16
2023-06-09T03:00:16.021Z,68.93
2023-06-09T03:02:43.658Z,68.90
2023-06-09T03:05:10.394Z,68.99
2023-06-09T03:07:37.334Z,68.77
2023-06-09T03:10:06.107Z,68.67
2023-06-09T03:12:32.615Z,69.01
2023-06-09T03:14:59.311Z,69.19
2023-06-09T03:17:26.327Z,69.16
2023-06-09T03:19:52.813Z,69.59
2023-06-09T03:22:19.321Z,69.38
2023-06-09T03:24:45.895Z,69.42
2023-06-09T03:27:12.413Z,69.27
2023-06-09T03:29:38.846Z,69.29
2023-06-09T03:32:05.471Z,69.46
2023-06-09T03:34:31.934Z,69.37
2023-06-09T03:36:58.573Z,69.76
2023-06-09T03:39:24.945Z,69.57
2023-06-09T03:41:55.175Z,69.80
2023-06-09T03:44:22.740Z,69.62
2023-06-09T03:46:49.251Z,69.74
2023-06-09T03:49:15.747Z,70.08
2023-06-09T03:51:42.173Z,69.90
2023-06-09T03:54:08.639Z,69.69
2023-06-09T03:56:35.170Z,70.04
2023-06-09T03:59:01.668Z,69.90
2023-06-09T04:01:28.052Z,69.96
2023-06-09T04:03:54.515Z,69.69
2023-06-09T04:06:22.505Z,69.29
2023-06-09T04:08:49.613Z,69.47
2023-06-09T04:11:16.087Z,69.74
2023-06-09T04:13:42.435Z,69.22
2023-06-09T04:16:08.925Z,69.47
2023-06-09T04:18:35.562Z,69.42
2023-06-09T04:21:02.054Z,69.57
2023-06-09T04:23:28.828Z,69.38
2023-06-09T04:25:55.682Z,70.24
2023-06-09T04:28:24.842Z,69.93
2023-06-09T04:30:51.685Z,70.04
2023-06-09T04:33:19.336Z,69.99
2023-06-09T04:35:47.707Z,70.10
2023-06-09T04:38:14.219Z,70.80
2023-06-09T04:40:40.727Z,70.79
2023-06-09T04:43:08.151Z,70.72
2023-06-09T04:45:35.628Z,70.51
2023-06-09T04:48:03.237Z,70.83
2023-06-09T04:50:38.460Z,69.68
2023-06-09T04:53:05.582Z,70.01
2023-06-09T04:55:32.366Z,70.71
2023-06-09T04:57:58.798Z,70.87
2023-06-09T05:00:27.899Z,71.20
2023-06-09T05:02:55.406Z,71.03
2023-06-09T05:05:22.210Z,70.86
2023-06-09T05:07:48.688Z,70.31
2023-06-09T05:10:15.218Z,70.31
2023-06-09T05:12:41.732Z,70.40
2023-06-09T05:15:09.138Z,70.64
2023-06-09T05:17:38.100Z,71.24
2023-06-09T05:20:07.035Z,70.61
2023-06-09T05:22:34.088Z,71.16
2023-06-09T05:25:00.739Z,71.34
2023-06-09T05:27:27.121Z,70.88
2023-06-09T05:29:53.716Z,70.64
2023-06-09T05:32:20.168Z,70.81
2023-06-09T05:34:46.745Z,70.90
2023-06-09T05:37:16.222Z,70.71
2023-06-09T05:39:42.734Z,70.99
2023-06-09T05:42:10.042Z,70.48
2023-06-09T05:44:37.817Z,70.28
2023-06-09T05:47:04.655Z,71.01
2023-06-09T05:49:31.300Z,71.47
2023-06-09T05:51:57.764Z,71.83
2023-06-09T05:54:25.472Z,71.87
2023-06-09T05:56:54.297Z,71.48
2023-06-09T05:59:21.942Z,71.09
2023-06-09T06:01:48.955Z,71.46
2023-06-09T06:04:16.011Z,71.38
2023-06-09T06:06:42.500Z,71.12
2023-06-09T06:09:10.050Z,71.34
2023-06-09T06:11:36.673Z,71.47
2023-06-09T06:14:03.327Z,71.54
2023-06-09T06:16:29.787Z,71.60
2023-06-09T06:18:56.321Z,70.50
2023-06-09T06:21:22.706Z,71.30
2023-06-09T06:23:49.161Z,71.05
2023-06-09T06:26:15.674Z,70.43
2023-06-09T06:28:42.552Z,70.30
2023-06-09T06:31:09.444Z,70.32
2023-06-09T06:33:36.011Z,69.83
2023-06-09T06:36:02.488Z,69.72
2023-06-09T06:38:28.993Z,68.95
2023-06-09T06:40:55.432Z,68.79
2023-06-09T06:43:21.835Z,68.96
2023-06-09T06:45:48.528Z,68.72
2023-06-09T06:48:14.992Z,68.04
2023-06-09T06:50:41.608Z,67.88
2023-06-09T06:53:09.603Z,67.37
2023-06-09T06:55:38.154Z,67.95
2023-06-09T06:58:04.922Z,67.12
2023-06-09T07:00:31.444Z,65.52
2023-06-09T07:02:58.078Z,65.99
2023-06-09T07:05:24.786Z,65.59
2023-06-09T07:07:51.270Z,65.21
2023-06-09T07:10:17.775Z,64.60
2023-06-09T07:12:44.247Z,65.01
2023-06-09T07:17:42.760Z,64.33
2023-06-09T07:20:10.375Z,63.90
2023-06-09T07:22:41.537Z,63.64
2023-06-09T07:25:10.007Z,63.28
2023-06-09T07:27:36.385Z,62.29
2023-06-09T07:30:02.922Z,61.39
2023-06-09T07:32:30.410Z,61.77
2023-06-09T07:34:59.076Z,61.84
2023-06-09T07:37:26.348Z,62.22
2023-06-09T07:39:58.658Z,61.39
2023-06-09T07:42:31.385Z,60.17
2023-06-09T07:44:57.942Z,60.36
2023-06-09T07:47:24.391Z,59.38
2023-06-09T07:49:50.820Z,59.55
2023-06-09T07:52:24.277Z,58.79
2023-06-09T07:54:51.000Z,59.35
2023-06-09T07:57:17.400Z,57.93
2023-06-09T07:59:46.402Z,57.87
2023-06-09T08:02:13.345Z,58.21
2023-06-09T08:04:42.425Z,56.33
2023-06-09T08:07:09.342Z,56.77
2023-06-09T08:09:36.964Z,56.26
2023-06-09T08:12:06.390Z,56.65
2023-06-09T08:14:32.850Z,56.33
2023-06-09T08:16:59.239Z,56.38
2023-06-09T08:19:25.897Z,56.01
2023-06-09T08:21:52.956Z,55.07
2023-06-09T08:24:19.576Z,54.75
2023-06-09T08:26:49.488Z,55.57
2023-06-09T08:29:17.272Z,55.77
2023-06-09T08:31:43.786Z,55.57
2023-06-09T08:34:10.788Z,54.71
2023-06-09T08:36:38.021Z,55.09
2023-06-09T08:39:04.794Z,53.70
2023-06-09T08:41:35.026Z,54.67
2023-06-09T08:44:02.845Z,53.24
2023-06-09T08:46:33.915Z,52.98
2023-06-09T08:49:02.050Z,53.25
2023-06-09T08:51:29.465Z,52.91
2023-06-09T08:53:56.973Z,51.33
2023-06-09T08:56:23.894Z,51.46
2023-06-09T08:58:51.229Z,51.88
2023-06-09T09:01:19.035Z,51.41
2023-06-09T09:03:48.144Z,49.73
2023-06-09T09:06:15.534Z,50.83
2023-06-09T09:08:42.508Z,49.44
2023-06-09T09:11:08.890Z,49.70
2023-06-09T09:13:35.626Z,51.46
2023-06-09T09:16:02.734Z,50.73
2023-06-09T09:18:35.230Z,48.69
2023-06-09T09:21:03.628Z,49.05
2023-06-09T09:23:31.807Z,49.48
2023-06-09T09:26:06.478Z,46.94
2023-06-09T09:28:40.828Z,47.52
2023-06-09T09:31:10.809Z,47.60
2023-06-09T09:33:40.634Z,47.08
2023-06-09T09:36:11.427Z,47.22
2023-06-09T09:38:38.123Z,46.63
2023-06-09T09:41:05.878Z,46.65
2023-06-09T09:43:32.324Z,44.76
2023-06-09T09:46:08.944Z,44.68
2023-06-09T09:48:40.542Z,44.80
2023-06-09T09:51:09.589Z,44.10
2023-06-09T09:53:36.441Z,44.23
2023-06-09T09:56:03.626Z,43.39
2023-06-09T09:58:35.852Z,44.77
2023-06-09T10:01:07.481Z,42.27
2023-06-09T10:03:35.881Z,43.75
2023-06-09T10:06:07.495Z,42.98
2023-06-09T10:08:34.818Z,42.00
2023-06-09T10:11:01.964Z,43.76
2023-06-09T10:13:28.944Z,41.34
2023-06-09T10:15:56.764Z,41.71
2023-06-09T10:18:24.012Z,42.77
2023-06-09T10:20:52.617Z,41.60
2023-06-09T10:23:19.866Z,42.99
2023-06-09T10:25:50.784Z,41.14
2023-06-09T10:28:18.413Z,40.91
2023-06-09T10:30:51.791Z,40.30
2023-06-09T10:33:31.744Z,40.59
2023-06-09T10:36:00.740Z,39.56
2023-06-09T10:38:32.013Z,39.35
2023-06-09T10:41:20.540Z,38.76
2023-06-09T10:44:11.565Z,40.17
2023-06-09T10:46:49.284Z,38.86
2023-06-09T10:49:25.818Z,39.41
2023-06-09T10:51:53.156Z,38.99
2023-06-09T10:54:24.129Z,39.27
2023-06-09T10:56:58.851Z,39.08
2023-06-09T10:59:25.451Z,37.09
2023-06-09T11:02:04.489Z,39.13
2023-06-09T11:04:46.519Z,37.53
2023-06-09T11:07:23.958Z,37.69
2023-06-09T11:09:50.672Z,38.39
2023-06-09T11:12:26.386Z,36.32
2023-06-09T11:14:57.689Z,38.39
2023-06-09T11:17:45.831Z,36.01
2023-06-09T11:20:20.382Z,35.33
2023-06-09T11:22:48.609Z,36.03
2023-06-09T11:25:18.028Z,35.85
2023-06-09T11:27:48.148Z,35.33
2023-06-09T11:30:19.420Z,34.70
2023-06-09T11:32:46.591Z,34.47
2023-06-09T11:35:32.641Z,35.27
2023-06-09T11:38:00.343Z,34.38
2023-06-09T11:40:29.028Z,32.89
2023-06-09T11:42:56.945Z,32.80
2023-06-09T11:45:33.233Z,33.32
2023-06-09T11:48:01.651Z,33.04
2023-06-09T11:50:36.383Z,32.28
2023-06-09T11:53:05.214Z,33.33
2023-06-09T11:55:32.234Z,32.14
2023-06-09T11:57:59.373Z,31.60
2023-06-09T12:00:27.970Z,32.08
2023-06-09T12:02:59.094Z,32.53
2023-06-09T12:05:27.301Z,32.91
2023-06-09T12:07:54.709Z,31.51
2023-06-09T12:10:25.144Z,33.18
2023-06-09T12:12:53.343Z,33.52
2023-06-09T12:15:21.543Z,33.26
2023-06-09T12:17:59.431Z,32.95
2023-06-09T12:20:34.212Z,32.65
2023-06-09T12:23:17.786Z,32.98
2023-06-09T12:25:50.838Z,32.63
2023-06-09T12:28:27.537Z,32.66
2023-06-09T12:30:55.996Z,33.37
2023-06-09T12:33:30.453Z,32.97
2023-06-09T12:36:12.088Z,32.74
2023-06-09T12:38:41.629Z,31.94
2023-06-09T12:41:09.170Z,31.89
2023-06-09T12:43:50.555Z,32.21
2023-06-09T12:46:27.977Z,33.47
2023-06-09T12:49:08.876Z,32.76
2023-06-09T12:51:43.409Z,33.06
2023-06-09T12:54:12.607Z,33.19
2023-06-09T12:56:38.983Z,34.21
2023-06-09T12:59:06.524Z,34.10
2023-06-09T13:01:33.385Z,34.16
2023-06-09T13:04:00.200Z,33.48
2023-06-09T13:06:26.805Z,32.91
2023-06-09T13:08:53.236Z,33.79
2023-06-09T13:11:19.773Z,33.20
2023-06-09T13:13:46.242Z,34.40
2023-06-09T13:16:12.781Z,32.91
2023-06-09T13:18:40.626Z,33.96
2023-06-09T13:21:07.421Z,32.97
2023-06-09T13:23:33.904Z,34.67
2023-06-09T13:26:00.691Z,33.00
2023-06-09T13:28:27.257Z,33.01
2023-06-09T13:30:53.638Z,33.59
2023-06-09T13:33:20.773Z,33.82
2023-06-09T13:35:47.544Z,33.23
2023-06-09T13:38:16.150Z,33.12
2023-06-09T13:40:45.888Z,33.02
2023-06-09T13:43:16.934Z,32.38
2023-06-09T13:45:44.098Z,32.50
2023-06-09T13:48:11.016Z,33.46
2023-06-09T13:50:37.770Z,32.84
2023-06-09T13:53:05.094Z,33.12
2023-06-09T13:55:31.686Z,33.41
2023-06-09T13:57:58.025Z,34.03
2023-06-09T14:00:24.523Z,32.50
2023-06-09T14:02:51.277Z,33.57
2023-06-09T14:05:18.094Z,33.13
2023-06-09T14:07:47.442Z,34.40
2023-06-09T14:10:15.816Z,34.54
2023-06-09T14:12:48.255Z,34.53
2023-06-09T14:15:24.204Z,32.85
2023-06-09T14:17:55.939Z,33.31
2023-06-09T14:20:23.474Z,33.30
2023-06-09T14:22:51.064Z,33.16
2023-06-09T14:25:25.900Z,33.39
2023-06-09T14:27:56.517Z,32.62
2023-06-09T14:30:24.173Z,33.08
2023-06-09T14:32:51.915Z,33.11
2023-06-09T14:35:26.893Z,34.36
2023-06-09T14:37:59.789Z,33.09
2023-06-09T14:40:29.770Z,32.23
2023-06-09T14:42:56.975Z,32.33
2023-06-09T14:45:25.053Z,32.66
2023-06-09T14:47:59.717Z,32.61
2023-06-09T14:50:38.930Z,32.33
2023-06-09T14:53:06.062Z,33.56
2023-06-09T14:55:37.500Z,32.23
2023-06-09T14:58:04.713Z,31.37
2023-06-09T15:00:32.932Z,31.53
2023-06-09T15:03:00.366Z,32.11
2023-06-09T15:05:31.252Z,31.69
2023-06-09T15:08:03.329Z,31.74
2023-06-09T15:10:32.888Z,30.36
2023-06-09T15:13:00.945Z,29.65
2023-06-09T15:15:31.469Z,29.16
2023-06-09T15:17:59.951Z,31.99
2023-06-09T15:20:29.755Z,31.18
2023-06-09T15:23:00.874Z,30.34
2023-06-09T15:25:34.369Z,30.79
2023-06-09T15:28:05.803Z,31.86
2023-06-09T15:30:35.875Z,31.97
2023-06-09T15:33:04.584Z,32.17
2023-06-09T15:35:48.779Z,31.99
2023-06-09T15:38:17.139Z,30.68
2023-06-09T15:40:46.588Z,30.72
2023-06-09T15:43:14.740Z,31.07
2023-06-09T15:45:43.565Z,31.50
2023-06-09T15:48:10.612Z,30.51
2023-06-09T15:50:38.231Z,31.39
2023-06-09T15:53:06.007Z,30.29
2023-06-09T15:55:33.891Z,30.71
2023-06-09T15:58:06.986Z,30.15
2023-06-09T16:00:34.600Z,31.31
2023-06-09T16:03:10.886Z,30.91
2023-06-09T16:05:41.573Z,31.74
2023-06-09T16:08:10.076Z,32.14
2023-06-09T16:10:38.944Z,31.12
2023-06-09T16:13:06.624Z,31.29
2023-06-09T16:15:37.781Z,31.67
2023-06-09T16:18:10.383Z,31.77
2023-06-09T16:20:41.278Z,32.02
2023-06-09T16:23:09.874Z,30.95
2023-06-09T16:25:36.443Z,31.44
2023-06-09T16:28:03.788Z,32.28
2023-06-09T16:30:31.750Z,32.67
2023-06-09T16:32:58.810Z,32.08
2023-06-09T16:35:25.489Z,31.95
2023-06-09T16:37:54.329Z,32.60
2023-06-09T16:40:21.583Z,31.89
2023-06-09T16:42:48.205Z,32.31
2023-06-09T16:45:14.760Z,33.25
2023-06-09T16:47:41.297Z,33.09
2023-06-09T16:50:07.993Z,33.38
2023-06-09T16:52:35.633Z,33.61
2023-06-09T16:55:03.368Z,32.52
2023-06-09T16:57:29.925Z,33.54
2023-06-09T16:59:56.575Z,34.37
2023-06-09T17:02:23.081Z,33.33
2023-06-09T17:04:49.665Z,32.94
2023-06-09T17:07:16.215Z,33.03
2023-06-09T17:09:42.637Z,33.84
2023-06-09T17:12:09.521Z,33.65
2023-06-09T17:14:35.995Z,34.16
2023-06-09T17:17:02.474Z,35.62
2023-06-09T17:19:28.919Z,34.59
2023-06-09T17:21:55.349Z,33.71
2023-06-09T17:24:21.830Z,33.13
2023-06-09T17:26:48.310Z,33.56
2023-06-09T17:29:15.066Z,33.67
2023-06-09T17:31:41.560Z,34.13
2023-06-09T17:34:09.371Z,35.52
2023-06-09T17:36:35.902Z,34.46
2023-06-09T17:39:02.355Z,33.65
2023-06-09T17:41:29.142Z,34.89
2023-06-09T17:43:55.701Z,34.54
2023-06-09T17:46:22.102Z,35.36
2023-06-09T17:48:48.548Z,35.71
2023-06-09T17:51:17.493Z,35.91
2023-06-09T17:53:44.475Z,35.61
2023-06-09T17:56:11.182Z,36.50
2023-06-09T17:58:38.141Z,37.00
2023-06-09T18:01:04.734Z,36.85
2023-06-09T18:03:31.386Z,36.64
2023-06-09T18:05:57.820Z,36.73
2023-06-09T18:08:24.240Z,38.11
2023-06-09T18:10:50.777Z,38.93
2023-06-09T18:13:17.601Z,37.87
2023-06-09T18:15:44.810Z,38.69
2023-06-09T18:18:11.580Z,39.89
2023-06-09T18:20:38.105Z,39.61
2023-06-09T18:23:04.784Z,39.74
2023-06-09T18:25:32.796Z,39.41
2023-06-09T18:28:01.930Z,39.93
2023-06-09T18:30:29.122Z,39.93
2023-06-09T18:32:55.666Z,40.43
2023-06-09T18:35:22.212Z,41.34
2023-06-09T18:37:48.668Z,40.93
2023-06-09T18:40:15.701Z,40.69
2023-06-09T18:42:42.112Z,39.80
2023-06-09T18:45:09.340Z,39.46
2023-06-09T18:47:36.469Z,40.70
2023-06-09T18:50:03.621Z,40.78
2023-06-09T18:52:32.998Z,40.86
2023-06-09T18:54:59.563Z,40.29
2023-06-09T18:57:27.778Z,40.58
2023-06-09T18:59:54.196Z,40.10
2023-06-09T19:02:20.756Z,41.44
2023-06-09T19:04:51.523Z,41.25
2023-06-09T19:07:18.646Z,42.48
2023-06-09T19:09:47.446Z,40.93
2023-06-09T19:12:13.947Z,40.97
2023-06-09T19:14:40.530Z,41.83
2023-06-09T19:17:07.930Z,41.70
2023-06-09T19:19:34.432Z,41.75
2023-06-09T19:22:01.074Z,41.13
2023-06-09T19:24:27.493Z,42.33
2023-06-09T19:26:53.917Z,41.81
2023-06-09T19:29:20.580Z,41.29
2023-06-09T19:31:47.010Z,42.00
2023-06-09T19:34:13.513Z,42.16
2023-06-09T19:36:40.150Z,42.44
2023-06-09T19:39:07.359Z,43.39
2023-06-09T19:41:33.785Z,42.63
2023-06-09T19:44:00.791Z,42.48
2023-06-09T19:46:27.241Z,42.64
2023-06-09T19:48:53.902Z,42.46
2023-06-09T19:51:20.482Z,43.13
2023-06-09T19:53:46.977Z,43.64
2023-06-09T19:56:13.598Z,43.58
2023-06-09T19:58:40.005Z,43.26
2023-06-09T20:01:06.449Z,43.14
2023-06-09T20:03:32.994Z,43.57
2023-06-09T20:05:59.732Z,43.93
2023-06-09T20:08:26.414Z,43.69
2023-06-09T20:10:52.879Z,43.92
2023-06-09T20:13:19.356Z,44.77
2023-06-09T20:15:46.032Z,44.80
2023-06-09T20:18:14.938Z,44.57
2023-06-09T20:20:42.858Z,46.07
2023-06-09T20:23:11.431Z,44.79
2023-06-09T20:25:38.822Z,45.56
2023-06-09T20:28:05.501Z,45.30
2023-06-09T20:30:31.923Z,45.45
2023-06-09T20:32:58.475Z,46.90
2023-06-09T20:35:25.111Z,46.20
2023-06-09T20:37:53.385Z,46.66
2023-06-09T20:40:20.007Z,46.80
2023-06-09T20:42:46.492Z,46.38
2023-06-09T20:45:13.104Z,47.25
2023-06-09T20:47:39.545Z,46.12
2023-06-09T20:50:06.773Z,47.45
2023-06-09T20:52:34.027Z,47.88
2023-06-09T20:55:02.127Z,47.73
2023-06-09T20:57:30.203Z,48.29
2023-06-09T20:59:56.672Z,48.44
2023-06-09T21:02:23.185Z,48.25
2023-06-09T21:04:50.128Z,49.06
2023-06-09T21:07:16.654Z,48.90
2023-06-09T21:09:43.104Z,48.75
2023-06-09T21:12:11.397Z,49.66
2023-06-09T21:14:37.902Z,48.86
2023-06-09T21:17:05.685Z,49.31
2023-06-09T21:19:32.324Z,50.06
2023-06-09T21:21:58.763Z,50.23
2023-06-09T21:24:25.343Z,49.70
2023-06-09T21:26:51.770Z,49.94
2023-06-09T21:29:18.267Z,50.92
2023-06-09T21:31:44.712Z,50.41
2023-06-09T21:34:11.806Z,50.30
2023-06-09T21:36:38.281Z,50.18
2023-06-09T21:39:07.773Z,50.36
2023-06-09T21:41:34.351Z,50.57
2023-06-09T21:44:04.088Z,50.53
2023-06-09T21:46:34.816Z,51.02
2023-06-09T21:49:02.963Z,50.81
2023-06-09T21:53:57.594Z,50.06
2023-06-09T21:56:26.862Z,50.50
2023-06-09T21:58:53.784Z,51.46
2023-06-09T22:01:20.686Z,50.58
2023-06-09T22:03:48.751Z,51.69
2023-06-09T22:06:17.148Z,52.42
2023-06-09T22:08:45.793Z,51.99
2023-06-09T22:11:12.263Z,52.86
2023-06-09T22:13:46.540Z,52.75
2023-06-09T22:16:14.280Z,53.50
2023-06-09T22:18:43.929Z,53.40
2023-06-09T22:21:15.911Z,54.32
2023-06-09T22:23:44.609Z,53.60
2023-06-09T22:26:11.823Z,53.44
2023-06-09T22:28:40.683Z,53.01
2023-06-09T22:31:07.323Z,53.71
2023-06-09T22:33:37.158Z,53.61
2023-06-09T22:36:05.357Z,53.25
2023-06-09T22:38:35.569Z,52.98
2023-06-09T22:41:06.063Z,53.43
2023-06-09T22:43:33.422Z,54.53
2023-06-09T22:46:00.547Z,53.56
2023-06-09T22:48:36.062Z,53.55
2023-06-09T22:51:02.768Z,52.76
2023-06-09T22:53:32.718Z,53.65
2023-06-09T22:55:59.636Z,53.33
2023-06-09T22:58:29.422Z,53.21
2023-06-09T23:00:58.471Z,53.36
2023-06-09T23:03:30.700Z,53.54
2023-06-09T23:06:02.247Z,53.31
2023-06-09T23:08:29.268Z,54.08
2023-06-09T23:10:59.884Z,53.91
2023-06-09T23:13:29.756Z,53.13
2023-06-09T23:15:59.226Z,53.36
2023-06-09T23:18:30.826Z,53.38
2023-06-09T23:21:08.073Z,53.49
2023-06-09T23:23:36.194Z,54.07
2023-06-09T23:26:06.303Z,54.22
2023-06-09T23:28:33.574Z,54.31
2023-06-09T23:31:04.836Z,54.71
2023-06-09T23:33:33.359Z,54.34
2023-06-09T23:36:08.567Z,54.00
2023-06-09T23:38:37.520Z,54.36
2023-06-09T23:41:06.020Z,54.85
2023-06-09T23:43:33.789Z,54.60
2023-06-09T23:46:08.394Z,54.69
2023-06-09T23:48:40.482Z,54.63
2023-06-09T23:51:12.374Z,54.41
2023-06-09T23:53:39.409Z,54.54
2023-06-09T23:56:06.668Z,54.64
2023-06-09T23:58:35.460Z,55.92
